createdAt,value
2022-12-05T00:01:44.605Z,8.21
2022-12-05T00:04:15.157Z,8.13
2022-12-05T00:06:43.930Z,7.81
2022-12-05T00:09:14.167Z,7.76
2022-12-05T00:11:44.909Z,7.73
2022-12-05T00:14:13.757Z,7.78
2022-12-05T00:16:47.125Z,7.86
2022-12-05T00:19:16.123Z,7.79
2022-12-05T00:21:46.462Z,7.85
2022-12-05T00:24:16.800Z,7.52
2022-12-05T00:26:44.683Z,7.70
2022-12-05T00:29:12.556Z,8.04
2022-12-05T00:31:39.919Z,8.14
2022-12-05T00:34:07.504Z,7.64
2022-12-05T00:36:36.889Z,7.98
2022-12-05T00:39:12.643Z,7.94
2022-12-05T00:41:40.209Z,8.04
2022-12-05T00:44:08.745Z,7.93
2022-12-05T00:46:37.066Z,7.92
2022-12-05T00:49:07.678Z,7.71
2022-12-05T00:51:44.560Z,7.75
2022-12-05T00:54:16.034Z,7.80
2022-12-05T00:56:44.908Z,8.03
2022-12-05T00:59:20.317Z,8.37
2022-12-05T01:01:50.979Z,7.66
2022-12-05T01:04:25.373Z,8.02
2022-12-05T01:06:57.679Z,7.84
2022-12-05T01:09:25.794Z,7.83
2022-12-05T01:11:53.385Z,7.75
2022-12-05T01:14:25.974Z,7.52
2022-12-05T01:16:56.504Z,7.76
2022-12-05T01:19:29.893Z,8.14
2022-12-05T01:21:58.801Z,7.53
2022-12-05T01:24:29.532Z,7.52
2022-12-05T01:26:57.805Z,7.47
2022-12-05T01:29:26.271Z,7.49
2022-12-05T01:31:54.237Z,7.36
2022-12-05T01:34:21.799Z,7.49
2022-12-05T01:36:50.877Z,7.45
2022-12-05T01:39:18.732Z,7.57
2022-12-05T01:41:55.058Z,7.67
2022-12-05T01:44:22.414Z,7.47
2022-12-05T01:46:52.673Z,7.63
2022-12-05T01:49:26.020Z,7.47
2022-12-05T01:52:02.105Z,8.04
2022-12-05T01:54:30.568Z,8.07
2022-12-05T01:57:05.520Z,8.26
2022-12-05T01:59:40.156Z,8.15
2022-12-05T02:02:34.824Z,8.07
2022-12-05T02:05:22.643Z,8.05
2022-12-05T02:07:50.530Z,7.95
2022-12-05T02:10:18.540Z,8.03
2022-12-05T02:12:46.708Z,8.09
2022-12-05T02:15:37.898Z,8.00
2022-12-05T02:18:24.994Z,8.04
2022-12-05T02:21:57.761Z,7.95
2022-12-05T02:25:25.348Z,8.37
2022-12-05T02:29:00.329Z,7.76
2022-12-05T02:32:00.711Z,7.98
2022-12-05T02:34:59.330Z,7.90
2022-12-05T02:38:15.216Z,7.58
2022-12-05T02:41:24.745Z,7.72
2022-12-05T02:44:28.208Z,7.86
2022-12-05T02:46:59.113Z,7.91
2022-12-05T02:49:34.219Z,7.88
2022-12-05T02:52:09.105Z,8.24
2022-12-05T02:54:43.129Z,8.52
2022-12-05T02:57:12.779Z,8.12
2022-12-05T02:59:44.328Z,8.00
2022-12-05T03:02:34.045Z,8.00
2022-12-05T03:05:31.584Z,7.58
2022-12-05T03:08:06.250Z,7.60
2022-12-05T03:10:39.164Z,7.69
2022-12-05T03:13:18.237Z,8.04
2022-12-05T03:16:00.512Z,8.08
2022-12-05T03:18:42.745Z,8.13
2022-12-05T03:21:30.322Z,7.89
2022-12-05T03:24:07.055Z,7.87
2022-12-05T03:26:50.535Z,7.80
2022-12-05T03:29:44.169Z,7.54
2022-12-05T03:32:39.160Z,7.69
2022-12-05T03:35:18.476Z,7.86
2022-12-05T03:38:14.414Z,7.88
2022-12-05T03:40:54.608Z,7.99
2022-12-05T03:43:57.048Z,8.41
2022-12-05T03:47:17.979Z,8.17
2022-12-05T03:49:52.150Z,7.87
2022-12-05T03:56:22.445Z,8.02
2022-12-05T03:59:27.697Z,7.60
2022-12-05T04:02:01.213Z,7.46
2022-12-05T04:04:50.306Z,7.25
2022-12-05T04:07:21.871Z,7.27
2022-12-05T04:10:00.076Z,7.16
2022-12-05T04:12:32.823Z,6.94
2022-12-05T04:15:09.847Z,6.94
2022-12-05T04:17:57.796Z,7.15
2022-12-05T04:20:59.110Z,7.33
2022-12-05T04:23:27.356Z,7.86
2022-12-05T04:26:24.390Z,7.80
2022-12-05T04:29:14.071Z,7.73
2022-12-05T04:31:58.906Z,7.56
2022-12-05T04:34:29.314Z,7.73
2022-12-05T04:37:11.438Z,8.05
2022-12-05T04:39:55.168Z,8.00
2022-12-05T04:42:29.126Z,7.68
2022-12-05T04:45:06.788Z,7.56
2022-12-05T04:47:48.942Z,7.57
2022-12-05T04:50:18.844Z,7.69
2022-12-05T04:52:53.911Z,7.71
2022-12-05T04:55:29.815Z,7.60
2022-12-05T04:58:17.348Z,7.64
2022-12-05T05:01:11.132Z,7.66
2022-12-05T05:04:15.441Z,7.53
2022-12-05T05:06:44.040Z,7.54
2022-12-05T05:09:11.900Z,7.47
2022-12-05T05:11:39.685Z,7.52
2022-12-05T05:14:07.124Z,7.57
2022-12-05T05:16:42.368Z,7.51
2022-12-05T05:19:12.065Z,7.58
2022-12-05T05:21:43.003Z,7.62
2022-12-05T05:24:12.421Z,7.64
2022-12-05T05:26:45.267Z,7.62
2022-12-05T05:29:14.518Z,7.66
2022-12-05T05:31:49.305Z,7.52
2022-12-05T05:34:17.095Z,7.74
2022-12-05T05:36:44.509Z,7.80
2022-12-05T05:39:15.568Z,7.70
2022-12-05T05:41:43.588Z,8.07
2022-12-05T05:44:11.014Z,7.88
2022-12-05T05:46:38.631Z,7.83
2022-12-05T05:49:06.359Z,7.82
2022-12-05T05:51:33.767Z,7.67
2022-12-05T05:54:01.314Z,7.76
2022-12-05T05:56:29.615Z,7.64
2022-12-05T05:59:02.852Z,7.82
2022-12-05T06:01:31.219Z,7.89
2022-12-05T06:03:59.276Z,7.85
2022-12-05T06:06:27.709Z,8.17
2022-12-05T06:08:55.341Z,8.30
2022-12-05T06:11:27.443Z,8.06
2022-12-05T06:14:04.880Z,8.04
2022-12-05T06:16:32.515Z,7.99
2022-12-05T06:19:02.184Z,8.02
2022-12-05T06:21:29.553Z,8.06
2022-12-05T06:23:56.990Z,7.85
2022-12-05T06:26:24.443Z,7.89
2022-12-05T06:28:51.803Z,8.08
2022-12-05T06:31:24.177Z,8.34
2022-12-05T06:33:51.488Z,7.83
2022-12-05T06:36:22.271Z,8.03
2022-12-05T06:38:49.778Z,8.09
2022-12-05T06:41:21.940Z,8.15
2022-12-05T06:43:49.299Z,7.97
2022-12-05T06:46:17.939Z,8.05
2022-12-05T06:48:45.947Z,8.22
2022-12-05T06:51:16.970Z,8.38
2022-12-05T06:53:45.075Z,8.45
2022-12-05T06:56:20.443Z,8.25
2022-12-05T06:58:52.376Z,8.23
2022-12-05T07:01:42.189Z,7.99
2022-12-05T07:04:26.753Z,8.38
2022-12-05T07:06:55.932Z,8.51
2022-12-05T07:09:45.815Z,8.39
2022-12-05T07:12:18.754Z,8.37
2022-12-05T07:14:49.368Z,8.41
2022-12-05T07:17:20.526Z,8.26
2022-12-05T07:19:50.475Z,8.53
2022-12-05T07:22:24.133Z,8.50
2022-12-05T07:24:54.676Z,8.80
2022-12-05T07:27:26.915Z,8.61
2022-12-05T07:29:55.704Z,8.67
2022-12-05T07:32:23.525Z,9.01
2022-12-05T07:34:55.258Z,8.87
2022-12-05T07:37:23.935Z,8.56
2022-12-05T07:39:53.478Z,8.83
2022-12-05T07:42:21.060Z,8.55
2022-12-05T07:44:48.463Z,8.44
2022-12-05T07:47:16.024Z,8.71
2022-12-05T07:49:43.353Z,8.80
2022-12-05T07:52:10.848Z,8.86
2022-12-05T07:54:38.156Z,9.15
2022-12-05T07:57:05.795Z,9.16
2022-12-05T07:59:33.211Z,9.19
2022-12-05T08:02:07.155Z,9.32
2022-12-05T08:04:37.216Z,9.41
2022-12-05T08:07:06.860Z,9.65
2022-12-05T08:09:34.258Z,10.04
2022-12-05T08:12:01.761Z,10.11
2022-12-05T08:14:36.728Z,10.56
2022-12-05T08:17:04.814Z,10.28
2022-12-05T08:19:32.268Z,10.21
2022-12-05T08:21:59.619Z,10.08
2022-12-05T08:24:27.012Z,10.80
2022-12-05T08:26:54.379Z,10.43
2022-12-05T08:29:22.942Z,10.46
2022-12-05T08:31:52.489Z,9.82
2022-12-05T08:34:21.723Z,9.86
2022-12-05T08:36:49.551Z,9.90
2022-12-05T08:39:20.049Z,9.90
2022-12-05T08:41:49.211Z,9.73
2022-12-05T08:44:18.733Z,10.00
2022-12-05T08:46:50.820Z,9.78
2022-12-05T08:49:19.433Z,9.74
2022-12-05T08:51:46.991Z,10.00
2022-12-05T08:54:14.845Z,9.70
2022-12-05T08:56:42.421Z,10.01
2022-12-05T08:59:09.861Z,10.20
2022-12-05T09:01:39.344Z,10.37
2022-12-05T09:04:10.808Z,9.90
2022-12-05T09:06:39.560Z,9.97
2022-12-05T09:09:13.581Z,9.87
2022-12-05T09:11:46.669Z,9.54
2022-12-05T09:14:15.452Z,9.54
2022-12-05T09:16:47.835Z,10.17
2022-12-05T09:19:27.101Z,10.33
2022-12-05T09:21:58.453Z,10.52
2022-12-05T09:24:25.966Z,10.39
2022-12-05T09:26:53.239Z,10.88
2022-12-05T09:29:25.502Z,11.17
2022-12-05T09:31:54.033Z,10.39
2022-12-05T09:34:21.611Z,10.79
2022-12-05T09:36:55.593Z,11.21
2022-12-05T09:39:31.287Z,11.21
2022-12-05T09:42:20.507Z,10.92
2022-12-05T09:45:26.325Z,10.86
2022-12-05T09:48:16.176Z,10.66
2022-12-05T09:51:02.915Z,11.02
2022-12-05T09:53:41.725Z,11.32
2022-12-05T09:56:09.147Z,10.96
2022-12-05T09:58:48.999Z,11.09
2022-12-05T10:02:20.536Z,10.82
2022-12-05T10:06:13.891Z,11.37
2022-12-05T10:10:20.012Z,11.07
2022-12-05T10:13:36.447Z,10.87
2022-12-05T10:16:27.832Z,10.34
2022-12-05T10:19:11.710Z,10.66
2022-12-05T10:22:10.529Z,10.69
2022-12-05T10:25:02.398Z,10.84
2022-12-05T10:27:47.334Z,11.37
2022-12-05T10:30:46.698Z,11.52
2022-12-05T10:33:25.033Z,10.96
2022-12-05T10:35:59.925Z,11.01
2022-12-05T10:38:35.188Z,11.03
2022-12-05T10:41:11.246Z,11.06
2022-12-05T10:43:52.378Z,11.20
2022-12-05T10:46:20.197Z,11.30
2022-12-05T10:48:47.555Z,11.80
2022-12-05T10:51:26.080Z,11.44
2022-12-05T10:53:54.813Z,11.95
2022-12-05T10:56:50.124Z,11.70
2022-12-05T10:59:48.842Z,12.08
2022-12-05T11:02:32.775Z,12.03
2022-12-05T11:05:02.498Z,12.37
2022-12-05T11:07:31.970Z,12.94
2022-12-05T11:10:26.610Z,12.66
2022-12-05T11:12:58.860Z,12.61
2022-12-05T11:15:31.631Z,12.70
2022-12-05T11:18:48.505Z,12.67
2022-12-05T11:21:19.585Z,13.35
2022-12-05T11:23:49.466Z,13.56
2022-12-05T11:26:38.062Z,13.36
2022-12-05T11:29:37.223Z,13.58
2022-12-05T11:32:24.109Z,13.75
2022-12-05T11:35:14.064Z,13.58
2022-12-05T11:37:59.121Z,13.79
2022-12-05T11:40:38.717Z,14.15
2022-12-05T11:43:30.687Z,14.54
2022-12-05T11:46:23.575Z,13.45
2022-12-05T11:49:23.316Z,13.15
2022-12-05T11:52:52.329Z,13.43
2022-12-05T11:55:27.313Z,13.42
2022-12-05T11:59:11.460Z,13.51
2022-12-05T12:01:54.221Z,13.37
2022-12-05T12:04:58.733Z,13.24
2022-12-05T12:08:21.094Z,13.47
2022-12-05T12:11:03.655Z,13.68
2022-12-05T12:14:35.872Z,13.19
2022-12-05T12:17:43.830Z,12.42
2022-12-05T12:20:28.960Z,13.19
2022-12-05T12:23:54.792Z,13.24
2022-12-05T12:27:03.900Z,12.50
2022-12-05T12:30:01.150Z,12.83
2022-12-05T12:33:07.821Z,12.77
2022-12-05T12:36:00.556Z,12.79
2022-12-05T12:38:55.286Z,12.74
2022-12-05T12:42:01.609Z,13.01
2022-12-05T12:45:27.417Z,13.46
2022-12-05T12:48:00.367Z,13.30
2022-12-05T12:50:44.076Z,13.41
2022-12-05T12:53:52.203Z,13.53
2022-12-05T12:57:23.870Z,13.34
2022-12-05T13:00:13.288Z,13.61
2022-12-05T13:02:52.128Z,13.32
2022-12-05T13:05:35.189Z,13.51
2022-12-05T13:08:19.871Z,13.63
2022-12-05T13:10:51.292Z,13.91
2022-12-05T13:13:38.775Z,13.45
2022-12-05T13:16:08.922Z,13.26
2022-12-05T13:18:40.256Z,13.18
2022-12-05T13:21:10.351Z,12.94
2022-12-05T13:23:50.318Z,12.87
2022-12-05T13:26:23.983Z,12.80
2022-12-05T13:28:58.595Z,12.72
2022-12-05T13:31:45.894Z,12.75
2022-12-05T13:34:51.506Z,12.76
2022-12-05T13:37:50.788Z,12.61
2022-12-05T13:40:53.226Z,12.66
2022-12-05T13:43:27.355Z,12.37
2022-12-05T13:46:13.857Z,12.85
2022-12-05T13:48:49.082Z,12.71
2022-12-05T13:51:36.372Z,12.77
2022-12-05T13:54:15.731Z,12.81
2022-12-05T13:57:02.043Z,12.78
2022-12-05T14:00:07.885Z,12.99
2022-12-05T14:02:52.383Z,12.92
2022-12-05T14:05:22.497Z,12.95
2022-12-05T14:07:55.672Z,12.82
2022-12-05T14:10:28.991Z,12.77
2022-12-05T14:13:01.871Z,12.37
2022-12-05T14:15:38.756Z,12.34
2022-12-05T14:18:33.384Z,12.62
2022-12-05T14:21:17.451Z,12.37
2022-12-05T14:24:20.161Z,12.51
2022-12-05T14:27:20.348Z,12.56
2022-12-05T14:30:20.297Z,11.73
2022-12-05T14:32:48.509Z,11.95
2022-12-05T14:35:19.794Z,12.15
2022-12-05T14:38:01.902Z,12.14
2022-12-05T14:40:42.517Z,11.96
2022-12-05T14:43:42.823Z,11.74
2022-12-05T14:46:34.198Z,11.78
2022-12-05T14:49:54.265Z,11.39
2022-12-05T14:52:28.229Z,11.55
2022-12-05T14:55:10.282Z,11.34
2022-12-05T14:57:48.771Z,11.42
2022-12-05T15:00:27.123Z,11.03
2022-12-05T15:02:57.397Z,11.06
2022-12-05T15:05:31.645Z,10.97
2022-12-05T15:08:01.964Z,11.09
2022-12-05T15:10:35.515Z,11.11
2022-12-05T15:13:28.427Z,10.94
2022-12-05T15:16:16.700Z,10.97
2022-12-05T15:18:50.832Z,10.77
2022-12-05T15:21:36.407Z,10.85
2022-12-05T15:24:13.596Z,10.92
2022-12-05T15:26:53.790Z,10.59
2022-12-05T15:29:21.131Z,10.72
2022-12-05T15:32:16.897Z,10.80
2022-12-05T15:35:06.325Z,10.57
2022-12-05T15:38:25.587Z,10.37
2022-12-05T15:40:56.217Z,9.88
2022-12-05T15:43:33.322Z,9.61
2022-12-05T15:46:26.171Z,9.14
2022-12-05T15:49:18.438Z,9.12
2022-12-05T15:52:34.139Z,8.95
2022-12-05T15:55:16.184Z,9.12
2022-12-05T15:58:13.917Z,9.29
2022-12-05T16:00:49.088Z,9.35
2022-12-05T16:03:44.151Z,9.38
2022-12-05T16:06:27.948Z,9.36
2022-12-05T16:08:58.362Z,9.39
2022-12-05T16:11:26.314Z,9.18
2022-12-05T16:14:03.834Z,9.26
2022-12-05T16:16:37.788Z,9.21
2022-12-05T16:19:18.464Z,9.14
2022-12-05T16:22:09.407Z,8.78
2022-12-05T16:25:01.795Z,8.56
2022-12-05T16:27:39.720Z,8.69
2022-12-05T16:30:23.042Z,8.75
2022-12-05T16:33:14.394Z,8.54
2022-12-05T16:35:47.330Z,8.59
2022-12-05T16:38:20.321Z,8.63
2022-12-05T16:40:52.312Z,8.60
2022-12-05T16:43:32.556Z,8.58
2022-12-05T16:46:14.815Z,8.75
2022-12-05T16:49:42.635Z,8.73
2022-12-05T16:52:25.264Z,8.51
2022-12-05T16:54:52.849Z,8.29
2022-12-05T16:57:22.661Z,8.15
2022-12-05T16:59:51.019Z,8.10
2022-12-05T17:05:17.297Z,8.58
2022-12-05T17:07:49.346Z,8.50
2022-12-05T17:10:22.836Z,8.31
2022-12-05T17:12:55.853Z,8.21
2022-12-05T17:15:23.519Z,8.29
2022-12-05T17:17:57.982Z,8.36
2022-12-05T17:20:28.296Z,8.48
2022-12-05T17:22:56.269Z,8.48
2022-12-05T17:25:37.695Z,8.84
2022-12-05T17:28:05.687Z,9.08
2022-12-05T17:30:38.236Z,8.86
2022-12-05T17:33:14.262Z,8.95
2022-12-05T17:35:42.557Z,8.79
2022-12-05T17:38:14.342Z,8.74
2022-12-05T17:40:54.868Z,8.66
2022-12-05T17:43:25.336Z,8.74
2022-12-05T17:45:54.939Z,8.81
2022-12-05T17:48:26.581Z,8.87
2022-12-05T17:50:57.772Z,8.93
2022-12-05T17:53:25.876Z,9.13
2022-12-05T17:55:53.573Z,9.16
2022-12-05T17:58:21.078Z,9.16
2022-12-05T18:00:53.454Z,9.00
2022-12-05T18:03:24.491Z,9.00
2022-12-05T18:05:54.811Z,8.93
2022-12-05T18:08:24.242Z,8.89
2022-12-05T18:10:52.307Z,8.94
2022-12-05T18:13:20.103Z,9.42
2022-12-05T18:15:49.156Z,9.50
2022-12-05T18:18:18.603Z,9.24
2022-12-05T18:20:46.260Z,9.14
2022-12-05T18:23:20.936Z,8.92
2022-12-05T18:26:03.456Z,8.90
2022-12-05T18:28:57.074Z,8.71
2022-12-05T18:31:25.178Z,8.79
2022-12-05T18:33:52.924Z,9.08
2022-12-05T18:36:23.022Z,8.87
2022-12-05T18:38:57.911Z,8.68
2022-12-05T18:41:28.860Z,8.56
2022-12-05T18:44:06.960Z,8.59
2022-12-05T18:46:34.822Z,8.63
2022-12-05T18:49:03.709Z,8.60
2022-12-05T18:51:35.286Z,8.72
2022-12-05T18:54:04.181Z,8.25
2022-12-05T18:56:35.441Z,7.80
2022-12-05T18:59:17.059Z,7.37
2022-12-05T19:01:46.070Z,7.32
2022-12-05T19:04:20.021Z,7.61
2022-12-05T19:07:02.030Z,7.84
2022-12-05T19:09:32.473Z,7.67
2022-12-05T19:12:01.035Z,7.58
2022-12-05T19:14:33.200Z,7.72
2022-12-05T19:17:02.803Z,8.09
2022-12-05T19:19:30.586Z,8.26
2022-12-05T19:21:59.309Z,8.37
2022-12-05T19:24:32.503Z,7.98
2022-12-05T19:27:00.255Z,8.34
2022-12-05T19:29:27.714Z,8.30
2022-12-05T19:31:55.057Z,8.05
2022-12-05T19:34:24.305Z,8.06
2022-12-05T19:36:51.917Z,8.18
2022-12-05T19:39:26.715Z,8.34
2022-12-05T19:41:57.506Z,8.52
2022-12-05T19:44:28.058Z,8.70
2022-12-05T19:46:58.262Z,8.60
2022-12-05T19:49:25.564Z,8.25
2022-12-05T19:51:52.921Z,8.56
2022-12-05T19:54:22.141Z,8.54
2022-12-05T19:57:00.869Z,8.51
2022-12-05T19:59:31.634Z,8.45
2022-12-05T20:01:59.269Z,8.53
2022-12-05T20:04:27.139Z,8.94
2022-12-05T20:06:54.347Z,8.86
2022-12-05T20:09:23.078Z,8.58
2022-12-05T20:11:55.056Z,8.63
2022-12-05T20:14:25.779Z,8.50
2022-12-05T20:16:53.540Z,8.61
2022-12-05T20:19:22.783Z,9.08
2022-12-05T20:21:50.271Z,9.37
2022-12-05T20:24:17.692Z,9.07
2022-12-05T20:26:45.223Z,8.94
2022-12-05T20:29:12.616Z,8.96
2022-12-05T20:31:46.834Z,8.73
2022-12-05T20:34:15.638Z,8.49
2022-12-05T20:36:43.713Z,8.63
2022-12-05T20:39:17.272Z,8.71
2022-12-05T20:41:45.330Z,8.85
2022-12-05T20:44:15.766Z,8.88
2022-12-05T20:46:43.249Z,8.94
2022-12-05T20:49:13.977Z,8.92
2022-12-05T20:51:46.783Z,8.83
2022-12-05T20:54:18.247Z,8.77
2022-12-05T20:56:45.886Z,8.61
2022-12-05T20:59:14.517Z,8.54
2022-12-05T21:01:42.649Z,8.74
2022-12-05T21:04:12.865Z,8.96
2022-12-05T21:06:42.937Z,9.00
2022-12-05T21:09:18.405Z,8.95
2022-12-05T21:11:48.578Z,8.86
2022-12-05T21:14:15.873Z,9.18
2022-12-05T21:16:43.267Z,9.14
2022-12-05T21:19:11.074Z,9.02
2022-12-05T21:21:38.876Z,8.92
2022-12-05T21:24:07.488Z,8.91
2022-12-05T21:26:36.244Z,8.79
2022-12-05T21:29:07.022Z,8.97
2022-12-05T21:31:42.400Z,8.96
2022-12-05T21:34:22.290Z,9.01
2022-12-05T21:36:50.168Z,8.67
2022-12-05T21:39:17.800Z,8.47
2022-12-05T21:41:45.123Z,8.68
2022-12-05T21:44:14.805Z,8.93
2022-12-05T21:46:42.248Z,8.64
2022-12-05T21:49:09.689Z,8.40
2022-12-05T21:51:37.283Z,8.50
2022-12-05T21:54:04.921Z,8.04
2022-12-05T21:56:32.570Z,8.27
2022-12-05T21:58:59.816Z,7.97
2022-12-05T22:01:29.084Z,8.02
2022-12-05T22:03:59.695Z,8.11
2022-12-05T22:06:29.962Z,8.21
2022-12-05T22:08:57.801Z,8.68
2022-12-05T22:11:26.058Z,8.68
2022-12-05T22:13:53.469Z,8.93
2022-12-05T22:16:22.037Z,8.64
2022-12-05T22:18:49.929Z,8.55
2022-12-05T22:21:21.482Z,8.67
2022-12-05T22:23:49.932Z,8.83
2022-12-05T22:26:22.460Z,8.99
2022-12-05T22:28:55.858Z,8.64
2022-12-05T22:31:27.734Z,8.39
2022-12-05T22:33:55.060Z,8.21
2022-12-05T22:36:24.225Z,8.41
2022-12-05T22:38:51.652Z,8.64
2022-12-05T22:41:24.801Z,8.72
2022-12-05T22:44:00.147Z,8.73
2022-12-05T22:46:31.199Z,8.79
2022-12-05T22:48:58.578Z,8.69
2022-12-05T22:51:27.446Z,8.64
2022-12-05T22:53:54.954Z,8.63
2022-12-05T22:56:27.468Z,8.67
2022-12-05T22:58:59.553Z,8.87
2022-12-05T23:01:39.065Z,9.10
2022-12-05T23:04:11.077Z,8.71
2022-12-05T23:06:39.950Z,8.54
2022-12-05T23:09:10.975Z,8.51
2022-12-05T23:11:38.543Z,8.59
2022-12-05T23:14:07.442Z,8.87
2022-12-05T23:16:35.206Z,8.42
2022-12-05T23:19:05.802Z,7.97
2022-12-05T23:21:38.265Z,7.85
2022-12-05T23:24:10.638Z,7.50
2022-12-05T23:26:43.979Z,7.41
2022-12-05T23:29:13.732Z,7.48
2022-12-05T23:31:42.119Z,7.87
2022-12-05T23:34:10.197Z,7.98
2022-12-05T23:36:38.173Z,7.65
2022-12-05T23:39:08.806Z,7.59
2022-12-05T23:41:36.309Z,7.90
2022-12-05T23:44:03.951Z,8.17
2022-12-05T23:46:31.321Z,8.17
2022-12-05T23:48:58.870Z,8.15
2022-12-05T23:51:29.820Z,7.99
2022-12-05T23:54:01.375Z,7.78
2022-12-05T23:56:33.302Z,8.36
2022-12-05T23:59:04.857Z,8.76
